createdAt,value
2023-01-26T00:04:10.473Z,3.28
2023-01-26T00:09:06.224Z,3.30
2023-01-26T00:13:58.713Z,3.39
2023-01-26T00:18:52.426Z,3.33
2023-01-26T00:23:46.130Z,3.37
2023-01-26T00:28:41.345Z,3.38
2023-01-26T00:33:33.640Z,3.38
2023-01-26T00:38:30.189Z,3.41
2023-01-26T00:43:22.703Z,3.41
2023-01-26T00:48:23.602Z,3.43
2023-01-26T00:53:17.748Z,3.46
2023-01-26T00:58:22.088Z,3.46
2023-01-26T01:03:13.861Z,3.51
2023-01-26T01:08:10.066Z,3.52
2023-01-26T01:13:01.527Z,3.56
2023-01-26T01:17:57.170Z,3.58
2023-01-26T01:22:49.500Z,3.57
2023-01-26T01:27:47.732Z,3.55
2023-01-26T01:32:45.412Z,3.60
2023-01-26T01:37:42.589Z,3.52
2023-01-26T01:42:34.110Z,3.59
2023-01-26T01:47:32.263Z,3.53
2023-01-26T01:52:29.078Z,3.57
2023-01-26T01:57:31.265Z,3.58
2023-01-26T02:02:23.770Z,3.59
2023-01-26T02:07:20.275Z,3.57
2023-01-26T02:12:16.483Z,3.51
2023-01-26T02:17:09.630Z,3.46
2023-01-26T02:22:08.388Z,3.44
2023-01-26T02:27:04.842Z,3.45
2023-01-26T02:31:59.814Z,3.61
2023-01-26T02:37:03.460Z,3.69
2023-01-26T02:42:09.202Z,3.67
2023-01-26T02:47:03.250Z,3.69
2023-01-26T02:51:55.061Z,3.66
2023-01-26T02:56:46.664Z,3.62
2023-01-26T03:01:45.854Z,3.75
2023-01-26T03:06:43.435Z,3.67
2023-01-26T03:11:42.373Z,3.71
2023-01-26T03:16:32.999Z,3.76
2023-01-26T03:21:35.864Z,3.73
2023-01-26T03:26:49.762Z,3.75
2023-01-26T03:31:42.768Z,3.90
2023-01-26T03:36:34.744Z,3.91
2023-01-26T03:41:52.126Z,3.89
2023-01-26T03:46:58.059Z,3.85
2023-01-26T03:52:07.216Z,3.95
2023-01-26T03:57:05.637Z,4.03
2023-01-26T04:02:11.562Z,4.04
2023-01-26T04:07:14.910Z,4.09
2023-01-26T04:12:17.011Z,3.91
2023-01-26T04:17:43.967Z,4.04
2023-01-26T04:22:41.194Z,3.98
2023-01-26T04:27:39.507Z,4.02
2023-01-26T04:32:36.824Z,4.17
2023-01-26T04:37:28.976Z,4.17
2023-01-26T04:42:30.681Z,4.21
2023-01-26T04:47:29.298Z,4.23
2023-01-26T04:52:21.069Z,4.16
2023-01-26T04:57:12.542Z,4.11
2023-01-26T05:02:15.228Z,4.23
2023-01-26T05:07:10.843Z,4.21
2023-01-26T05:12:31.279Z,4.26
2023-01-26T05:17:43.208Z,4.29
2023-01-26T05:22:59.110Z,4.42
2023-01-26T05:28:00.045Z,4.43
2023-01-26T05:33:26.518Z,4.48
2023-01-26T05:38:22.708Z,4.54
2023-01-26T05:43:20.847Z,4.53
2023-01-26T05:48:38.040Z,4.51
2023-01-26T05:53:36.375Z,4.56
2023-01-26T05:58:43.454Z,4.60
2023-01-26T06:03:40.005Z,4.50
2023-01-26T06:08:38.587Z,4.67
2023-01-26T06:13:55.884Z,4.73
2023-01-26T06:19:02.330Z,4.83
2023-01-26T06:24:16.318Z,4.85
2023-01-26T06:29:09.212Z,4.92
2023-01-26T06:34:06.117Z,4.92
2023-01-26T06:39:03.163Z,4.98
2023-01-26T06:44:00.375Z,4.99
2023-01-26T06:49:00.507Z,5.03
2023-01-26T06:53:55.104Z,5.05
2023-01-26T06:59:04.152Z,5.11
2023-01-26T07:04:23.938Z,5.16
2023-01-26T07:09:17.171Z,5.15
2023-01-26T07:14:11.964Z,5.21
2023-01-26T07:19:05.180Z,5.26
2023-01-26T07:24:11.267Z,5.34
2023-01-26T07:29:01.426Z,5.43
2023-01-26T07:33:55.238Z,5.48
2023-01-26T07:38:50.696Z,5.52
2023-01-26T07:43:47.012Z,5.63
2023-01-26T07:48:44.985Z,5.71
2023-01-26T07:53:44.560Z,5.78
2023-01-26T07:58:41.916Z,5.86
2023-01-26T08:03:36.162Z,5.90
2023-01-26T08:08:27.389Z,5.90
2023-01-26T08:13:34.375Z,6.03
2023-01-26T08:18:27.980Z,6.16
2023-01-26T08:23:33.255Z,6.28
2023-01-26T08:28:30.246Z,6.42
2023-01-26T08:33:32.170Z,6.60
2023-01-26T08:38:22.432Z,6.72
2023-01-26T08:43:14.240Z,6.90
2023-01-26T08:48:17.702Z,6.99
2023-01-26T08:58:48.486Z,7.21
2023-01-26T09:03:46.736Z,7.37
2023-01-26T09:08:46.596Z,7.33
2023-01-26T09:13:48.077Z,7.45
2023-01-26T09:18:46.498Z,7.66
2023-01-26T09:23:40.115Z,7.77
2023-01-26T09:28:35.165Z,7.91
2023-01-26T09:33:29.076Z,8.02
2023-01-26T09:38:23.506Z,8.22
2023-01-26T09:43:34.614Z,8.32
2023-01-26T09:48:36.424Z,8.40
2023-01-26T09:53:47.543Z,8.45
2023-01-26T09:58:45.263Z,8.60
2023-01-26T10:03:47.086Z,8.71
2023-01-26T10:08:42.047Z,8.72
2023-01-26T10:13:36.805Z,8.84
2023-01-26T10:18:35.276Z,8.97
2023-01-26T10:23:32.105Z,8.92
2023-01-26T10:28:43.085Z,8.96
2023-01-26T10:33:42.711Z,9.04
2023-01-26T10:38:50.504Z,9.91
2023-01-26T10:43:45.968Z,9.97
2023-01-26T10:48:39.329Z,9.99
2023-01-26T10:53:32.156Z,10.04
2023-01-26T10:58:38.603Z,10.35
2023-01-26T11:03:34.364Z,10.46
2023-01-26T11:08:37.710Z,10.56
2023-01-26T11:13:38.915Z,10.81
2023-01-26T11:18:47.638Z,10.72
2023-01-26T11:23:54.928Z,10.89
2023-01-26T11:29:03.380Z,10.93
2023-01-26T11:34:10.049Z,10.99
2023-01-26T11:39:18.253Z,10.85
2023-01-26T11:44:38.954Z,10.35
2023-01-26T11:49:59.586Z,11.14
2023-01-26T11:55:10.977Z,11.27
2023-01-26T12:00:14.770Z,11.39
2023-01-26T12:05:23.938Z,11.73
2023-01-26T12:10:16.822Z,11.78
2023-01-26T12:20:36.938Z,11.73
2023-01-26T12:25:36.281Z,11.71
2023-01-26T12:30:37.744Z,11.90
2023-01-26T12:35:50.765Z,11.97
2023-01-26T12:40:58.450Z,11.86
2023-01-26T12:45:54.253Z,11.76
2023-01-26T12:50:53.530Z,11.84
2023-01-26T12:55:51.723Z,11.69
2023-01-26T13:00:43.426Z,11.76
2023-01-26T13:05:36.655Z,11.85
2023-01-26T13:10:49.988Z,11.87
2023-01-26T13:15:48.917Z,11.78
2023-01-26T13:20:56.459Z,11.70
2023-01-26T13:26:15.936Z,11.82
2023-01-26T13:31:15.566Z,11.82
2023-01-26T13:36:09.015Z,11.86
2023-01-26T13:41:02.342Z,11.55
2023-01-26T13:46:03.864Z,11.50
2023-01-26T13:50:59.544Z,11.67
2023-01-26T13:56:02.290Z,11.66
2023-01-26T14:01:09.516Z,11.00
2023-01-26T14:06:04.583Z,11.00
2023-01-26T14:10:55.469Z,10.90
2023-01-26T14:15:47.361Z,10.96
2023-01-26T14:20:49.775Z,11.04
2023-01-26T14:25:42.944Z,11.90
2023-01-26T14:30:39.850Z,11.81
2023-01-26T14:35:31.120Z,11.70
2023-01-26T14:40:31.563Z,10.87
2023-01-26T14:45:35.986Z,10.94
2023-01-26T14:50:35.274Z,11.45
2023-01-26T14:55:37.071Z,10.80
2023-01-26T15:00:31.742Z,10.95
2023-01-26T15:05:26.904Z,10.92
2023-01-26T15:10:38.576Z,10.76
2023-01-26T15:15:32.640Z,10.69
2023-01-26T15:20:47.979Z,10.57
2023-01-26T15:25:46.091Z,10.49
2023-01-26T15:30:40.744Z,10.44
2023-01-26T15:35:37.112Z,10.40
2023-01-26T15:40:31.085Z,10.36
2023-01-26T15:45:30.927Z,10.46
2023-01-26T15:50:28.170Z,10.97
2023-01-26T15:55:29.440Z,10.89
2023-01-26T16:00:24.158Z,10.99
2023-01-26T16:05:23.144Z,10.98
2023-01-26T16:10:15.698Z,11.17
2023-01-26T16:15:26.672Z,10.93
2023-01-26T16:20:22.531Z,10.80
2023-01-26T16:25:24.908Z,10.86
2023-01-26T16:30:17.262Z,10.81
2023-01-26T16:35:16.638Z,10.74
2023-01-26T16:40:16.291Z,10.72
2023-01-26T16:45:19.020Z,9.82
2023-01-26T16:50:13.504Z,9.77
2023-01-26T16:55:04.961Z,10.48
2023-01-26T17:00:02.532Z,10.48
2023-01-26T17:04:54.526Z,10.44
2023-01-26T17:09:51.697Z,10.50
2023-01-26T17:14:46.024Z,10.43
2023-01-26T17:19:48.610Z,10.45
2023-01-26T17:24:44.220Z,10.38
2023-01-26T17:29:36.686Z,10.44
2023-01-26T17:34:28.911Z,10.51
2023-01-26T17:39:27.301Z,10.43
2023-01-26T17:44:21.341Z,10.42
2023-01-26T17:49:19.571Z,10.42
2023-01-26T17:54:12.899Z,10.35
2023-01-26T17:59:12.009Z,10.44
2023-01-26T18:04:06.324Z,10.40
2023-01-26T18:08:58.806Z,9.59
2023-01-26T18:13:57.572Z,10.13
2023-01-26T18:18:53.104Z,10.32
2023-01-26T18:23:57.053Z,10.27
2023-01-26T18:28:58.070Z,10.24
2023-01-26T18:33:55.111Z,10.24
2023-01-26T18:38:52.837Z,10.30
2023-01-26T18:43:44.914Z,10.34
2023-01-26T18:48:44.591Z,10.35
2023-01-26T18:53:40.729Z,10.34
2023-01-26T18:58:33.641Z,10.35
2023-01-26T19:03:30.938Z,10.40
2023-01-26T19:08:24.928Z,10.16
2023-01-26T19:13:22.049Z,10.33
2023-01-26T19:18:14.069Z,10.43
2023-01-26T19:23:06.097Z,10.39
2023-01-26T19:28:01.044Z,10.39
2023-01-26T19:33:08.172Z,10.38
2023-01-26T19:37:58.982Z,10.39
2023-01-26T19:42:52.217Z,10.36
2023-01-26T19:47:47.277Z,10.42
2023-01-26T19:52:43.608Z,10.49
2023-01-26T19:57:42.727Z,10.49
2023-01-26T20:02:35.948Z,10.33
2023-01-26T20:07:31.173Z,10.37
2023-01-26T20:12:30.265Z,10.34
2023-01-26T20:17:23.519Z,10.36
2023-01-26T20:22:15.655Z,10.43
2023-01-26T20:27:10.279Z,10.49
2023-01-26T20:32:05.333Z,10.43
2023-01-26T20:37:02.668Z,10.50
2023-01-26T20:41:56.413Z,10.71
2023-01-26T20:46:48.862Z,10.61
2023-01-26T20:51:43.092Z,10.47
2023-01-26T20:56:33.452Z,10.60
2023-01-26T21:01:27.208Z,10.55
2023-01-26T21:06:19.159Z,10.61
2023-01-26T21:11:16.487Z,10.59
2023-01-26T21:16:12.098Z,10.51
2023-01-26T21:21:09.884Z,10.48
2023-01-26T21:26:03.908Z,10.38
2023-01-26T21:31:04.748Z,10.30
2023-01-26T21:36:00.912Z,10.32
2023-01-26T21:40:53.797Z,10.31
2023-01-26T21:45:57.664Z,10.18
2023-01-26T21:51:04.451Z,10.22
2023-01-26T21:55:56.527Z,10.19
2023-01-26T22:00:47.657Z,10.15
2023-01-26T22:05:39.826Z,10.07
2023-01-26T22:10:33.467Z,9.98
2023-01-26T22:15:23.318Z,9.93
2023-01-26T22:20:28.444Z,9.79
2023-01-26T22:25:21.095Z,9.74
2023-01-26T22:30:18.833Z,9.65
2023-01-26T22:35:12.004Z,9.59
2023-01-26T22:40:03.688Z,9.56
2023-01-26T22:44:53.619Z,9.62
2023-01-26T22:49:50.551Z,9.63
2023-01-26T22:54:43.445Z,9.59
2023-01-26T22:59:35.404Z,9.63
2023-01-26T23:04:24.935Z,9.57
2023-01-26T23:09:20.276Z,9.61
2023-01-26T23:14:26.554Z,9.65
2023-01-26T23:19:21.819Z,9.63
2023-01-26T23:24:13.520Z,9.71
2023-01-26T23:29:07.015Z,9.68
2023-01-26T23:33:59.097Z,9.71
2023-01-26T23:38:54.243Z,9.83
2023-01-26T23:43:47.434Z,9.83
2023-01-26T23:48:41.719Z,9.84
2023-01-26T23:53:35.748Z,9.87
2023-01-26T23:58:30.713Z,9.84
